sensor_id;sensor_type;location;lat;lon;timestamp;P1;durP1;ratioP1;P2;durP2;ratioP2
55989;SDS011;41875;55.806;38.082;2023-04-24T00:01:11;27.98;;;9.50;;
55989;SDS011;41875;55.806;38.082;2023-04-24T00:03:40;28.10;;;10.05;;
55989;SDS011;41875;55.806;38.082;2023-04-24T00:06:09;30.08;;;11.07;;
55989;SDS011;41875;55.806;38.082;2023-04-24T00:08:37;22.90;;;9.00;;
55989;SDS011;41875;55.806;38.082;2023-04-24T00:11:06;26.90;;;9.07;;
55989;SDS011;41875;55.806;38.082;2023-04-24T00:13:36;28.85;;;9.48;;
55989;SDS011;41875;55.806;38.082;2023-04-24T00:16:11;23.02;;;8.88;;
55989;SDS011;41875;55.806;38.082;2023-04-24T00:18:40;23.08;;;9.07;;
55989;SDS011;41875;55.806;38.082;2023-04-24T00:21:09;27.45;;;10.23;;
55989;SDS011;41875;55.806;38.082;2023-04-24T00:23:37;25.83;;;8.75;;
55989;SDS011;41875;55.806;38.082;2023-04-24T00:26:07;20.17;;;8.70;;
55989;SDS011;41875;55.806;38.082;2023-04-24T00:28:38;30.00;;;10.02;;
55989;SDS011;41875;55.806;38.082;2023-04-24T00:31:06;27.35;;;10.68;;
55989;SDS011;41875;55.806;38.082;2023-04-24T00:33:39;26.52;;;10.43;;
55989;SDS011;41875;55.806;38.082;2023-04-24T00:36:08;23.83;;;8.73;;
55989;SDS011;41875;55.806;38.082;2023-04-24T00:38:36;31.05;;;10.35;;
55989;SDS011;41875;55.806;38.082;2023-04-24T00:41:05;21.85;;;9.75;;
55989;SDS011;41875;55.806;38.082;2023-04-24T00:43:34;26.98;;;9.35;;
55989;SDS011;41875;55.806;38.082;2023-04-24T00:46:06;25.23;;;8.52;;
55989;SDS011;41875;55.806;38.082;2023-04-24T00:51:06;29.15;;;10.10;;
55989;SDS011;41875;55.806;38.082;2023-04-24T00:53:35;21.65;;;8.70;;
55989;SDS011;41875;55.806;38.082;2023-04-24T00:56:04;22.08;;;8.20;;
55989;SDS011;41875;55.806;38.082;2023-04-24T00:58:36;25.52;;;9.25;;
55989;SDS011;41875;55.806;38.082;2023-04-24T01:01:05;25.50;;;9.85;;
55989;SDS011;41875;55.806;38.082;2023-04-24T01:03:34;21.13;;;8.25;;
55989;SDS011;41875;55.806;38.082;2023-04-24T01:06:05;27.92;;;9.90;;
55989;SDS011;41875;55.806;38.082;2023-04-24T01:08:35;26.33;;;9.45;;
55989;SDS011;41875;55.806;38.082;2023-04-24T01:11:04;25.15;;;9.85;;
55989;SDS011;41875;55.806;38.082;2023-04-24T01:13:34;24.42;;;9.65;;
55989;SDS011;41875;55.806;38.082;2023-04-24T01:16:03;22.15;;;9.52;;
55989;SDS011;41875;55.806;38.082;2023-04-24T01:18:33;28.15;;;9.85;;
55989;SDS011;41875;55.806;38.082;2023-04-24T01:21:02;22.33;;;9.45;;
55989;SDS011;41875;55.806;38.082;2023-04-24T01:23:37;25.20;;;9.82;;
55989;SDS011;41875;55.806;38.082;2023-04-24T01:26:06;31.10;;;11.20;;
55989;SDS011;41875;55.806;38.082;2023-04-24T01:28:34;26.05;;;10.48;;
55989;SDS011;41875;55.806;38.082;2023-04-24T01:31:04;24.80;;;9.57;;
55989;SDS011;41875;55.806;38.082;2023-04-24T01:33:33;26.33;;;10.20;;
55989;SDS011;41875;55.806;38.082;2023-04-24T01:36:02;28.58;;;10.10;;
55989;SDS011;41875;55.806;38.082;2023-04-24T01:38:31;22.33;;;9.30;;
55989;SDS011;41875;55.806;38.082;2023-04-24T01:41:02;26.40;;;10.57;;
55989;SDS011;41875;55.806;38.082;2023-04-24T01:43:30;25.60;;;10.07;;
55989;SDS011;41875;55.806;38.082;2023-04-24T01:46:00;26.40;;;9.98;;
55989;SDS011;41875;55.806;38.082;2023-04-24T01:48:28;21.05;;;8.30;;
55989;SDS011;41875;55.806;38.082;2023-04-24T01:50:58;24.63;;;9.88;;
55989;SDS011;41875;55.806;38.082;2023-04-24T01:53:29;26.23;;;10.88;;
55989;SDS011;41875;55.806;38.082;2023-04-24T01:55:57;23.40;;;10.18;;
55989;SDS011;41875;55.806;38.082;2023-04-24T01:58:28;26.23;;;10.73;;
55989;SDS011;41875;55.806;38.082;2023-04-24T02:00:56;26.45;;;10.05;;
55989;SDS011;41875;55.806;38.082;2023-04-24T02:03:25;26.85;;;10.35;;
55989;SDS011;41875;55.806;38.082;2023-04-24T02:05:57;23.35;;;10.50;;
55989;SDS011;41875;55.806;38.082;2023-04-24T02:08:25;23.15;;;10.68;;
55989;SDS011;41875;55.806;38.082;2023-04-24T02:10:54;27.60;;;11.10;;
55989;SDS011;41875;55.806;38.082;2023-04-24T02:13:23;27.10;;;10.80;;
55989;SDS011;41875;55.806;38.082;2023-04-24T02:15:53;23.38;;;11.00;;
55989;SDS011;41875;55.806;38.082;2023-04-24T02:18:42;25.00;;;11.68;;
55989;SDS011;41875;55.806;38.082;2023-04-24T02:21:13;29.23;;;13.77;;
55989;SDS011;41875;55.806;38.082;2023-04-24T02:23:43;30.67;;;14.25;;
55989;SDS011;41875;55.806;38.082;2023-04-24T02:26:13;35.30;;;14.68;;
55989;SDS011;41875;55.806;38.082;2023-04-24T02:28:43;35.38;;;15.02;;
55989;SDS011;41875;55.806;38.082;2023-04-24T02:31:14;32.25;;;15.13;;
55989;SDS011;41875;55.806;38.082;2023-04-24T02:33:44;37.42;;;14.55;;
55989;SDS011;41875;55.806;38.082;2023-04-24T02:36:15;33.20;;;15.05;;
55989;SDS011;41875;55.806;38.082;2023-04-24T02:38:44;33.65;;;14.20;;
55989;SDS011;41875;55.806;38.082;2023-04-24T02:41:12;37.13;;;14.95;;
55989;SDS011;41875;55.806;38.082;2023-04-24T02:43:41;30.90;;;12.25;;
55989;SDS011;41875;55.806;38.082;2023-04-24T02:46:10;32.95;;;12.02;;
55989;SDS011;41875;55.806;38.082;2023-04-24T02:48:40;28.90;;;12.88;;
55989;SDS011;41875;55.806;38.082;2023-04-24T02:51:09;34.58;;;13.43;;
55989;SDS011;41875;55.806;38.082;2023-04-24T02:53:40;29.13;;;11.35;;
55989;SDS011;41875;55.806;38.082;2023-04-24T02:56:11;22.80;;;10.50;;
55989;SDS011;41875;55.806;38.082;2023-04-24T03:01:09;27.50;;;11.85;;
55989;SDS011;41875;55.806;38.082;2023-04-24T03:03:39;30.38;;;11.48;;
55989;SDS011;41875;55.806;38.082;2023-04-24T03:06:08;27.00;;;10.93;;
55989;SDS011;41875;55.806;38.082;2023-04-24T03:08:37;22.63;;;9.95;;
55989;SDS011;41875;55.806;38.082;2023-04-24T03:11:05;29.30;;;10.20;;
55989;SDS011;41875;55.806;38.082;2023-04-24T03:13:34;24.98;;;9.65;;
55989;SDS011;41875;55.806;38.082;2023-04-24T03:16:02;30.52;;;10.45;;
55989;SDS011;41875;55.806;38.082;2023-04-24T03:18:32;22.20;;;9.23;;
55989;SDS011;41875;55.806;38.082;2023-04-24T03:21:02;27.10;;;10.02;;
55989;SDS011;41875;55.806;38.082;2023-04-24T03:23:31;23.02;;;10.55;;
55989;SDS011;41875;55.806;38.082;2023-04-24T03:26:00;29.27;;;11.27;;
55989;SDS011;41875;55.806;38.082;2023-04-24T03:28:29;24.05;;;10.77;;
55989;SDS011;41875;55.806;38.082;2023-04-24T03:31:03;24.95;;;10.68;;
55989;SDS011;41875;55.806;38.082;2023-04-24T03:33:35;23.27;;;9.60;;
55989;SDS011;41875;55.806;38.082;2023-04-24T03:36:07;21.10;;;10.18;;
55989;SDS011;41875;55.806;38.082;2023-04-24T03:38:39;22.52;;;9.73;;
55989;SDS011;41875;55.806;38.082;2023-04-24T03:41:24;20.73;;;10.10;;
55989;SDS011;41875;55.806;38.082;2023-04-24T03:44:15;21.48;;;9.30;;
55989;SDS011;41875;55.806;38.082;2023-04-24T03:49:12;28.13;;;10.65;;
55989;SDS011;41875;55.806;38.082;2023-04-24T03:51:48;22.58;;;9.38;;
55989;SDS011;41875;55.806;38.082;2023-04-24T03:54:23;22.60;;;11.07;;
55989;SDS011;41875;55.806;38.082;2023-04-24T03:56:55;24.85;;;11.00;;
55989;SDS011;41875;55.806;38.082;2023-04-24T03:59:26;25.95;;;10.68;;
55989;SDS011;41875;55.806;38.082;2023-04-24T04:02:08;24.08;;;10.07;;
55989;SDS011;41875;55.806;38.082;2023-04-24T04:04:37;28.38;;;9.85;;
55989;SDS011;41875;55.806;38.082;2023-04-24T04:07:07;24.15;;;10.32;;
55989;SDS011;41875;55.806;38.082;2023-04-24T04:09:35;22.58;;;10.10;;
55989;SDS011;41875;55.806;38.082;2023-04-24T04:12:04;21.38;;;9.82;;
55989;SDS011;41875;55.806;38.082;2023-04-24T04:14:33;28.27;;;10.75;;
55989;SDS011;41875;55.806;38.082;2023-04-24T04:17:02;26.65;;;11.32;;
55989;SDS011;41875;55.806;38.082;2023-04-24T04:19:30;37.85;;;13.43;;
55989;SDS011;41875;55.806;38.082;2023-04-24T04:21:59;25.13;;;13.27;;
55989;SDS011;41875;55.806;38.082;2023-04-24T04:24:38;35.35;;;14.65;;
55989;SDS011;41875;55.806;38.082;2023-04-24T04:27:08;33.30;;;15.05;;
55989;SDS011;41875;55.806;38.082;2023-04-24T04:29:47;32.17;;;14.40;;
55989;SDS011;41875;55.806;38.082;2023-04-24T04:32:16;33.28;;;15.60;;
55989;SDS011;41875;55.806;38.082;2023-04-24T04:34:45;27.58;;;14.02;;
55989;SDS011;41875;55.806;38.082;2023-04-24T04:37:16;26.58;;;11.95;;
55989;SDS011;41875;55.806;38.082;2023-04-24T04:40:08;23.50;;;11.90;;
55989;SDS011;41875;55.806;38.082;2023-04-24T04:42:48;29.55;;;12.65;;
55989;SDS011;41875;55.806;38.082;2023-04-24T04:45:20;22.98;;;12.43;;
55989;SDS011;41875;55.806;38.082;2023-04-24T04:48:13;21.83;;;10.80;;
55989;SDS011;41875;55.806;38.082;2023-04-24T04:50:45;27.23;;;11.82;;
55989;SDS011;41875;55.806;38.082;2023-04-24T04:53:13;22.33;;;12.27;;
55989;SDS011;41875;55.806;38.082;2023-04-24T04:55:43;25.05;;;11.88;;
55989;SDS011;41875;55.806;38.082;2023-04-24T04:58:15;23.77;;;11.93;;
55989;SDS011;41875;55.806;38.082;2023-04-24T05:00:45;21.70;;;11.13;;
55989;SDS011;41875;55.806;38.082;2023-04-24T05:03:23;31.55;;;11.73;;
55989;SDS011;41875;55.806;38.082;2023-04-24T05:05:58;24.77;;;10.18;;
55989;SDS011;41875;55.806;38.082;2023-04-24T05:08:28;24.20;;;11.57;;
55989;SDS011;41875;55.806;38.082;2023-04-24T05:10:59;24.88;;;11.77;;
55989;SDS011;41875;55.806;38.082;2023-04-24T05:13:29;25.67;;;11.10;;
55989;SDS011;41875;55.806;38.082;2023-04-24T05:16:12;28.40;;;11.98;;
55989;SDS011;41875;55.806;38.082;2023-04-24T05:21:12;23.33;;;11.02;;
55989;SDS011;41875;55.806;38.082;2023-04-24T05:23:44;19.17;;;10.30;;
55989;SDS011;41875;55.806;38.082;2023-04-24T05:26:21;26.25;;;11.45;;
55989;SDS011;41875;55.806;38.082;2023-04-24T05:28:49;22.08;;;10.82;;
55989;SDS011;41875;55.806;38.082;2023-04-24T05:31:18;26.00;;;11.32;;
55989;SDS011;41875;55.806;38.082;2023-04-24T05:33:47;25.90;;;10.32;;
55989;SDS011;41875;55.806;38.082;2023-04-24T05:36:15;26.52;;;10.07;;
55989;SDS011;41875;55.806;38.082;2023-04-24T05:38:44;24.13;;;11.05;;
55989;SDS011;41875;55.806;38.082;2023-04-24T05:41:12;24.92;;;10.27;;
55989;SDS011;41875;55.806;38.082;2023-04-24T05:43:43;24.10;;;9.95;;
55989;SDS011;41875;55.806;38.082;2023-04-24T05:46:11;24.55;;;11.55;;
55989;SDS011;41875;55.806;38.082;2023-04-24T05:48:40;19.92;;;10.05;;
55989;SDS011;41875;55.806;38.082;2023-04-24T05:51:09;26.13;;;10.50;;
55989;SDS011;41875;55.806;38.082;2023-04-24T05:53:39;23.00;;;9.98;;
55989;SDS011;41875;55.806;38.082;2023-04-24T05:56:08;23.02;;;9.93;;
55989;SDS011;41875;55.806;38.082;2023-04-24T05:58:37;27.20;;;10.88;;
55989;SDS011;41875;55.806;38.082;2023-04-24T06:03:37;20.42;;;9.57;;
55989;SDS011;41875;55.806;38.082;2023-04-24T06:06:08;22.65;;;10.07;;
55989;SDS011;41875;55.806;38.082;2023-04-24T06:08:36;20.63;;;9.77;;
55989;SDS011;41875;55.806;38.082;2023-04-24T06:13:34;22.88;;;9.40;;
55989;SDS011;41875;55.806;38.082;2023-04-24T06:16:22;26.85;;;10.88;;
55989;SDS011;41875;55.806;38.082;2023-04-24T06:18:58;24.23;;;10.27;;
55989;SDS011;41875;55.806;38.082;2023-04-24T06:21:26;26.55;;;10.10;;
55989;SDS011;41875;55.806;38.082;2023-04-24T06:23:55;20.08;;;9.57;;
55989;SDS011;41875;55.806;38.082;2023-04-24T06:26:24;23.27;;;9.95;;
55989;SDS011;41875;55.806;38.082;2023-04-24T06:28:53;25.23;;;9.35;;
55989;SDS011;41875;55.806;38.082;2023-04-24T06:31:23;23.67;;;8.48;;
55989;SDS011;41875;55.806;38.082;2023-04-24T06:33:53;19.85;;;8.10;;
55989;SDS011;41875;55.806;38.082;2023-04-24T06:36:21;16.05;;;8.05;;
55989;SDS011;41875;55.806;38.082;2023-04-24T06:38:50;19.23;;;8.52;;
55989;SDS011;41875;55.806;38.082;2023-04-24T06:41:18;17.08;;;8.57;;
55989;SDS011;41875;55.806;38.082;2023-04-24T06:43:47;15.98;;;7.55;;
55989;SDS011;41875;55.806;38.082;2023-04-24T06:46:15;15.35;;;7.43;;
55989;SDS011;41875;55.806;38.082;2023-04-24T06:48:50;17.77;;;7.53;;
55989;SDS011;41875;55.806;38.082;2023-04-24T06:51:18;16.90;;;7.10;;
55989;SDS011;41875;55.806;38.082;2023-04-24T06:53:47;14.48;;;7.28;;
55989;SDS011;41875;55.806;38.082;2023-04-24T06:56:16;20.83;;;6.88;;
55989;SDS011;41875;55.806;38.082;2023-04-24T06:58:45;15.25;;;6.50;;
55989;SDS011;41875;55.806;38.082;2023-04-24T07:01:13;15.93;;;7.03;;
55989;SDS011;41875;55.806;38.082;2023-04-24T07:03:42;14.90;;;7.13;;
55989;SDS011;41875;55.806;38.082;2023-04-24T07:06:12;19.02;;;7.43;;
55989;SDS011;41875;55.806;38.082;2023-04-24T07:08:43;12.98;;;6.20;;
55989;SDS011;41875;55.806;38.082;2023-04-24T07:11:11;16.45;;;6.32;;
55989;SDS011;41875;55.806;38.082;2023-04-24T07:13:40;18.77;;;6.68;;
55989;SDS011;41875;55.806;38.082;2023-04-24T07:16:09;15.82;;;6.03;;
55989;SDS011;41875;55.806;38.082;2023-04-24T07:18:37;12.18;;;5.65;;
55989;SDS011;41875;55.806;38.082;2023-04-24T07:21:06;13.77;;;6.32;;
55989;SDS011;41875;55.806;38.082;2023-04-24T07:23:36;11.00;;;5.38;;
55989;SDS011;41875;55.806;38.082;2023-04-24T07:26:04;9.43;;;5.40;;
55989;SDS011;41875;55.806;38.082;2023-04-24T07:28:33;10.88;;;5.57;;
55989;SDS011;41875;55.806;38.082;2023-04-24T07:31:01;14.90;;;5.20;;
55989;SDS011;41875;55.806;38.082;2023-04-24T07:33:31;12.10;;;5.20;;
55989;SDS011;41875;55.806;38.082;2023-04-24T07:36:00;11.43;;;5.57;;
55989;SDS011;41875;55.806;38.082;2023-04-24T07:38:29;12.07;;;6.15;;
55989;SDS011;41875;55.806;38.082;2023-04-24T07:41:00;11.98;;;5.18;;
55989;SDS011;41875;55.806;38.082;2023-04-24T07:43:29;10.57;;;4.75;;
55989;SDS011;41875;55.806;38.082;2023-04-24T07:45:57;15.02;;;5.15;;
55989;SDS011;41875;55.806;38.082;2023-04-24T07:48:26;14.45;;;4.70;;
55989;SDS011;41875;55.806;38.082;2023-04-24T07:50:54;14.98;;;4.90;;
55989;SDS011;41875;55.806;38.082;2023-04-24T07:53:23;14.93;;;4.78;;
55989;SDS011;41875;55.806;38.082;2023-04-24T07:55:51;9.73;;;4.65;;
55989;SDS011;41875;55.806;38.082;2023-04-24T07:58:21;20.10;;;5.03;;
55989;SDS011;41875;55.806;38.082;2023-04-24T08:00:50;10.73;;;5.40;;
55989;SDS011;41875;55.806;38.082;2023-04-24T08:03:19;12.60;;;5.43;;
55989;SDS011;41875;55.806;38.082;2023-04-24T08:05:48;9.65;;;5.10;;
55989;SDS011;41875;55.806;38.082;2023-04-24T08:08:18;11.18;;;4.70;;
55989;SDS011;41875;55.806;38.082;2023-04-24T08:10:49;10.88;;;4.57;;
55989;SDS011;41875;55.806;38.082;2023-04-24T08:13:17;11.70;;;4.70;;
55989;SDS011;41875;55.806;38.082;2023-04-24T08:15:47;7.80;;;4.32;;
55989;SDS011;41875;55.806;38.082;2023-04-24T08:18:16;12.40;;;4.65;;
55989;SDS011;41875;55.806;38.082;2023-04-24T08:20:46;9.75;;;5.15;;
55989;SDS011;41875;55.806;38.082;2023-04-24T08:23:20;15.55;;;5.40;;
55989;SDS011;41875;55.806;38.082;2023-04-24T08:25:49;9.60;;;4.72;;
55989;SDS011;41875;55.806;38.082;2023-04-24T08:28:18;8.40;;;4.45;;
55989;SDS011;41875;55.806;38.082;2023-04-24T08:30:48;12.45;;;4.80;;
55989;SDS011;41875;55.806;38.082;2023-04-24T08:33:21;9.90;;;4.70;;
55989;SDS011;41875;55.806;38.082;2023-04-24T08:35:50;12.05;;;4.80;;
55989;SDS011;41875;55.806;38.082;2023-04-24T08:40:47;12.57;;;5.13;;
55989;SDS011;41875;55.806;38.082;2023-04-24T08:43:17;9.20;;;5.32;;
55989;SDS011;41875;55.806;38.082;2023-04-24T08:45:48;13.45;;;4.75;;
55989;SDS011;41875;55.806;38.082;2023-04-24T08:48:17;9.43;;;4.85;;
55989;SDS011;41875;55.806;38.082;2023-04-24T08:50:57;14.88;;;5.30;;
55989;SDS011;41875;55.806;38.082;2023-04-24T08:53:26;16.23;;;4.78;;
55989;SDS011;41875;55.806;38.082;2023-04-24T08:56:00;11.50;;;4.60;;
55989;SDS011;41875;55.806;38.082;2023-04-24T08:58:32;13.73;;;5.00;;
55989;SDS011;41875;55.806;38.082;2023-04-24T09:01:03;10.48;;;5.10;;
55989;SDS011;41875;55.806;38.082;2023-04-24T09:03:32;10.38;;;4.97;;
55989;SDS011;41875;55.806;38.082;2023-04-24T09:06:02;13.40;;;4.60;;
55989;SDS011;41875;55.806;38.082;2023-04-24T09:08:32;10.40;;;4.85;;
55989;SDS011;41875;55.806;38.082;2023-04-24T09:11:01;8.30;;;4.35;;
55989;SDS011;41875;55.806;38.082;2023-04-24T09:13:30;12.18;;;4.90;;
55989;SDS011;41875;55.806;38.082;2023-04-24T09:15:59;8.75;;;4.50;;
55989;SDS011;41875;55.806;38.082;2023-04-24T09:18:29;10.25;;;4.95;;
55989;SDS011;41875;55.806;38.082;2023-04-24T09:21:02;14.30;;;5.60;;
55989;SDS011;41875;55.806;38.082;2023-04-24T09:23:34;12.35;;;4.63;;
55989;SDS011;41875;55.806;38.082;2023-04-24T09:28:35;10.82;;;5.22;;
55989;SDS011;41875;55.806;38.082;2023-04-24T09:31:06;9.32;;;4.82;;
55989;SDS011;41875;55.806;38.082;2023-04-24T09:33:38;9.95;;;5.05;;
55989;SDS011;41875;55.806;38.082;2023-04-24T09:36:08;9.27;;;4.78;;
55989;SDS011;41875;55.806;38.082;2023-04-24T09:38:37;9.77;;;4.93;;
55989;SDS011;41875;55.806;38.082;2023-04-24T09:41:07;10.98;;;4.90;;
55989;SDS011;41875;55.806;38.082;2023-04-24T09:43:37;12.65;;;5.10;;
55989;SDS011;41875;55.806;38.082;2023-04-24T09:46:08;13.23;;;5.38;;
55989;SDS011;41875;55.806;38.082;2023-04-24T09:48:38;13.90;;;4.75;;
55989;SDS011;41875;55.806;38.082;2023-04-24T09:51:07;9.93;;;5.15;;
55989;SDS011;41875;55.806;38.082;2023-04-24T09:53:37;12.40;;;5.22;;
55989;SDS011;41875;55.806;38.082;2023-04-24T09:56:11;10.23;;;5.03;;
55989;SDS011;41875;55.806;38.082;2023-04-24T10:01:08;9.50;;;4.57;;
55989;SDS011;41875;55.806;38.082;2023-04-24T10:03:38;9.32;;;4.90;;
55989;SDS011;41875;55.806;38.082;2023-04-24T10:06:12;9.90;;;5.10;;
55989;SDS011;41875;55.806;38.082;2023-04-24T10:08:41;10.13;;;5.00;;
55989;SDS011;41875;55.806;38.082;2023-04-24T10:11:13;11.57;;;5.13;;
55989;SDS011;41875;55.806;38.082;2023-04-24T10:13:42;9.70;;;4.85;;
55989;SDS011;41875;55.806;38.082;2023-04-24T10:16:11;9.95;;;5.03;;
55989;SDS011;41875;55.806;38.082;2023-04-24T10:18:41;10.55;;;4.80;;
55989;SDS011;41875;55.806;38.082;2023-04-24T10:21:10;8.85;;;4.78;;
55989;SDS011;41875;55.806;38.082;2023-04-24T10:23:39;10.90;;;4.80;;
55989;SDS011;41875;55.806;38.082;2023-04-24T10:26:09;9.35;;;4.55;;
55989;SDS011;41875;55.806;38.082;2023-04-24T10:28:44;15.35;;;5.45;;
55989;SDS011;41875;55.806;38.082;2023-04-24T10:31:13;13.98;;;6.05;;
55989;SDS011;41875;55.806;38.082;2023-04-24T10:33:44;11.82;;;5.43;;
55989;SDS011;41875;55.806;38.082;2023-04-24T10:36:14;8.40;;;5.00;;
55989;SDS011;41875;55.806;38.082;2023-04-24T10:38:45;11.73;;;5.30;;
55989;SDS011;41875;55.806;38.082;2023-04-24T10:41:16;13.50;;;5.03;;
55989;SDS011;41875;55.806;38.082;2023-04-24T10:44:03;9.93;;;4.45;;
55989;SDS011;41875;55.806;38.082;2023-04-24T10:46:32;12.32;;;5.47;;
55989;SDS011;41875;55.806;38.082;2023-04-24T10:49:05;11.45;;;5.43;;
55989;SDS011;41875;55.806;38.082;2023-04-24T10:51:45;8.85;;;5.00;;
55989;SDS011;41875;55.806;38.082;2023-04-24T10:54:23;9.25;;;4.80;;
55989;SDS011;41875;55.806;38.082;2023-04-24T10:56:53;8.65;;;4.28;;
55989;SDS011;41875;55.806;38.082;2023-04-24T10:59:50;8.00;;;4.18;;
55989;SDS011;41875;55.806;38.082;2023-04-24T11:02:38;8.73;;;4.47;;
55989;SDS011;41875;55.806;38.082;2023-04-24T11:05:16;10.10;;;4.97;;
55989;SDS011;41875;55.806;38.082;2023-04-24T11:10:40;9.70;;;4.82;;
55989;SDS011;41875;55.806;38.082;2023-04-24T11:13:14;9.15;;;5.10;;
55989;SDS011;41875;55.806;38.082;2023-04-24T11:15:44;8.85;;;4.68;;
55989;SDS011;41875;55.806;38.082;2023-04-24T11:18:37;11.45;;;4.70;;
55989;SDS011;41875;55.806;38.082;2023-04-24T11:21:11;9.15;;;4.63;;
55989;SDS011;41875;55.806;38.082;2023-04-24T11:23:40;9.45;;;3.92;;
55989;SDS011;41875;55.806;38.082;2023-04-24T11:26:12;10.75;;;4.45;;
55989;SDS011;41875;55.806;38.082;2023-04-24T11:31:35;7.57;;;3.95;;
55989;SDS011;41875;55.806;38.082;2023-04-24T11:34:17;7.40;;;4.18;;
55989;SDS011;41875;55.806;38.082;2023-04-24T11:36:47;10.02;;;4.35;;
55989;SDS011;41875;55.806;38.082;2023-04-24T11:39:16;10.55;;;4.43;;
55989;SDS011;41875;55.806;38.082;2023-04-24T11:41:45;9.82;;;4.07;;
55989;SDS011;41875;55.806;38.082;2023-04-24T11:44:14;12.13;;;5.00;;
55989;SDS011;41875;55.806;38.082;2023-04-24T11:46:48;11.63;;;4.03;;
55989;SDS011;41875;55.806;38.082;2023-04-24T11:49:17;7.47;;;3.67;;
55989;SDS011;41875;55.806;38.082;2023-04-24T11:51:47;8.20;;;3.90;;
55989;SDS011;41875;55.806;38.082;2023-04-24T11:54:20;10.15;;;3.97;;
55989;SDS011;41875;55.806;38.082;2023-04-24T11:56:49;8.65;;;4.20;;
55989;SDS011;41875;55.806;38.082;2023-04-24T11:59:17;10.32;;;4.38;;
55989;SDS011;41875;55.806;38.082;2023-04-24T12:01:46;8.57;;;4.10;;
55989;SDS011;41875;55.806;38.082;2023-04-24T12:04:16;9.40;;;4.20;;
55989;SDS011;41875;55.806;38.082;2023-04-24T12:09:40;7.90;;;4.00;;
55989;SDS011;41875;55.806;38.082;2023-04-24T12:12:10;9.82;;;4.13;;
55989;SDS011;41875;55.806;38.082;2023-04-24T12:17:28;8.90;;;4.40;;
55989;SDS011;41875;55.806;38.082;2023-04-24T12:20:02;10.38;;;4.20;;
55989;SDS011;41875;55.806;38.082;2023-04-24T12:25:21;12.15;;;5.10;;
55989;SDS011;41875;55.806;38.082;2023-04-24T12:27:52;9.32;;;4.30;;
55989;SDS011;41875;55.806;38.082;2023-04-24T12:30:31;7.78;;;3.85;;
55989;SDS011;41875;55.806;38.082;2023-04-24T12:33:01;7.32;;;3.60;;
55989;SDS011;41875;55.806;38.082;2023-04-24T12:35:31;9.07;;;3.35;;
55989;SDS011;41875;55.806;38.082;2023-04-24T12:38:07;7.68;;;3.20;;
55989;SDS011;41875;55.806;38.082;2023-04-24T12:40:36;13.02;;;3.65;;
55989;SDS011;41875;55.806;38.082;2023-04-24T12:43:12;6.35;;;3.25;;
55989;SDS011;41875;55.806;38.082;2023-04-24T12:45:42;13.55;;;3.85;;
55989;SDS011;41875;55.806;38.082;2023-04-24T12:48:11;9.18;;;3.90;;
55989;SDS011;41875;55.806;38.082;2023-04-24T12:50:41;12.60;;;4.15;;
55989;SDS011;41875;55.806;38.082;2023-04-24T12:53:14;7.35;;;3.53;;
55989;SDS011;41875;55.806;38.082;2023-04-24T12:55:43;7.18;;;3.42;;
55989;SDS011;41875;55.806;38.082;2023-04-24T12:58:13;7.18;;;3.33;;
55989;SDS011;41875;55.806;38.082;2023-04-24T13:00:44;9.73;;;3.70;;
55989;SDS011;41875;55.806;38.082;2023-04-24T13:03:31;6.70;;;3.42;;
55989;SDS011;41875;55.806;38.082;2023-04-24T13:05:59;10.25;;;3.58;;
55989;SDS011;41875;55.806;38.082;2023-04-24T13:08:35;9.43;;;3.90;;
55989;SDS011;41875;55.806;38.082;2023-04-24T13:11:04;9.07;;;3.60;;
55989;SDS011;41875;55.806;38.082;2023-04-24T13:16:01;6.60;;;3.47;;
55989;SDS011;41875;55.806;38.082;2023-04-24T13:18:29;6.57;;;3.10;;
55989;SDS011;41875;55.806;38.082;2023-04-24T13:20:58;10.10;;;3.72;;
55989;SDS011;41875;55.806;38.082;2023-04-24T13:23:29;9.52;;;3.70;;
55989;SDS011;41875;55.806;38.082;2023-04-24T13:26:03;8.23;;;3.03;;
55989;SDS011;41875;55.806;38.082;2023-04-24T13:28:35;8.18;;;3.22;;
55989;SDS011;41875;55.806;38.082;2023-04-24T13:31:04;7.65;;;3.10;;
55989;SDS011;41875;55.806;38.082;2023-04-24T13:36:01;8.18;;;3.53;;
55989;SDS011;41875;55.806;38.082;2023-04-24T13:38:33;6.65;;;3.30;;
55989;SDS011;41875;55.806;38.082;2023-04-24T13:41:05;11.95;;;4.13;;
55989;SDS011;41875;55.806;38.082;2023-04-24T13:43:34;7.57;;;3.15;;
55989;SDS011;41875;55.806;38.082;2023-04-24T13:46:02;8.02;;;3.22;;
55989;SDS011;41875;55.806;38.082;2023-04-24T13:48:33;8.80;;;3.28;;
55989;SDS011;41875;55.806;38.082;2023-04-24T13:51:02;8.95;;;3.67;;
55989;SDS011;41875;55.806;38.082;2023-04-24T13:53:31;7.85;;;3.85;;
55989;SDS011;41875;55.806;38.082;2023-04-24T13:56:04;7.43;;;4.00;;
55989;SDS011;41875;55.806;38.082;2023-04-24T13:58:35;12.18;;;4.60;;
55989;SDS011;41875;55.806;38.082;2023-04-24T14:01:04;7.32;;;3.85;;
55989;SDS011;41875;55.806;38.082;2023-04-24T14:06:01;9.40;;;3.97;;
55989;SDS011;41875;55.806;38.082;2023-04-24T14:08:30;7.10;;;3.40;;
55989;SDS011;41875;55.806;38.082;2023-04-24T14:11:01;7.97;;;3.60;;
55989;SDS011;41875;55.806;38.082;2023-04-24T14:13:32;8.77;;;3.15;;
55989;SDS011;41875;55.806;38.082;2023-04-24T14:16:00;11.23;;;3.50;;
55989;SDS011;41875;55.806;38.082;2023-04-24T14:18:29;9.13;;;3.80;;
55989;SDS011;41875;55.806;38.082;2023-04-24T14:23:27;7.57;;;3.33;;
55989;SDS011;41875;55.806;38.082;2023-04-24T14:25:56;6.90;;;3.40;;
55989;SDS011;41875;55.806;38.082;2023-04-24T14:30:54;10.68;;;3.50;;
55989;SDS011;41875;55.806;38.082;2023-04-24T14:33:23;9.68;;;3.92;;
55989;SDS011;41875;55.806;38.082;2023-04-24T14:35:52;10.30;;;4.82;;
55989;SDS011;41875;55.806;38.082;2023-04-24T14:38:20;9.07;;;4.13;;
55989;SDS011;41875;55.806;38.082;2023-04-24T14:40:49;11.90;;;4.55;;
55989;SDS011;41875;55.806;38.082;2023-04-24T14:43:32;9.48;;;4.50;;
55989;SDS011;41875;55.806;38.082;2023-04-24T14:46:03;10.50;;;4.38;;
55989;SDS011;41875;55.806;38.082;2023-04-24T14:48:32;11.40;;;5.20;;
55989;SDS011;41875;55.806;38.082;2023-04-24T14:51:00;12.43;;;6.43;;
55989;SDS011;41875;55.806;38.082;2023-04-24T14:53:29;14.70;;;6.22;;
55989;SDS011;41875;55.806;38.082;2023-04-24T14:55:57;16.10;;;6.53;;
55989;SDS011;41875;55.806;38.082;2023-04-24T14:58:26;13.65;;;5.47;;
55989;SDS011;41875;55.806;38.082;2023-04-24T15:00:55;11.07;;;5.03;;
55989;SDS011;41875;55.806;38.082;2023-04-24T15:03:25;16.70;;;6.75;;
55989;SDS011;41875;55.806;38.082;2023-04-24T15:05:55;11.45;;;5.97;;
55989;SDS011;41875;55.806;38.082;2023-04-24T15:08:23;14.10;;;5.57;;
55989;SDS011;41875;55.806;38.082;2023-04-24T15:10:54;17.00;;;5.63;;
55989;SDS011;41875;55.806;38.082;2023-04-24T15:13:23;11.10;;;5.15;;
55989;SDS011;41875;55.806;38.082;2023-04-24T15:15:51;13.82;;;5.20;;
55989;SDS011;41875;55.806;38.082;2023-04-24T15:18:20;10.90;;;5.07;;
55989;SDS011;41875;55.806;38.082;2023-04-24T15:20:50;11.93;;;5.45;;
55989;SDS011;41875;55.806;38.082;2023-04-24T15:23:18;10.70;;;4.72;;
55989;SDS011;41875;55.806;38.082;2023-04-24T15:25:47;11.75;;;4.90;;
55989;SDS011;41875;55.806;38.082;2023-04-24T15:30:44;10.60;;;4.40;;
55989;SDS011;41875;55.806;38.082;2023-04-24T15:33:13;6.78;;;3.58;;